createdAt,value
2019-05-30T00:02:08.246Z,4.60
2019-05-30T00:04:36.759Z,6.75
2019-05-30T00:07:04.962Z,8.05
2019-05-30T00:09:32.920Z,5.30
2019-05-30T00:12:00.954Z,4.58
2019-05-30T00:14:28.862Z,5.87
2019-05-30T00:16:56.844Z,4.10
2019-05-30T00:19:25.126Z,5.05
2019-05-30T00:21:53.104Z,4.62
2019-05-30T00:24:21.072Z,7.25
2019-05-30T00:26:49.341Z,6.97
2019-05-30T00:29:17.414Z,5.50
2019-05-30T00:31:45.470Z,6.33
2019-05-30T00:34:13.654Z,5.58
2019-05-30T00:36:42.015Z,4.22
2019-05-30T00:39:10.164Z,4.92
2019-05-30T00:41:38.164Z,5.28
2019-05-30T00:44:07.214Z,4.50
2019-05-30T00:46:35.425Z,4.30
2019-05-30T00:49:04.540Z,5.60
2019-05-30T00:51:32.823Z,4.37
2019-05-30T00:54:00.798Z,7.58
2019-05-30T00:56:29.078Z,4.78
2019-05-30T00:58:57.090Z,3.85
2019-05-30T01:01:25.057Z,4.37
2019-05-30T01:03:54.312Z,6.30
2019-05-30T01:06:22.258Z,5.87
2019-05-30T01:08:50.499Z,3.45
2019-05-30T01:11:18.555Z,4.60
2019-05-30T01:13:46.503Z,4.37
2019-05-30T01:16:15.464Z,4.50
2019-05-30T01:18:43.432Z,3.00
2019-05-30T01:21:11.374Z,5.42
2019-05-30T01:23:42.757Z,9.35
2019-05-30T01:26:11.172Z,5.47
2019-05-30T01:28:39.366Z,4.58
2019-05-30T01:31:10.117Z,4.08
2019-05-30T01:33:37.182Z,5.85
2019-05-30T01:36:05.841Z,6.25
2019-05-30T01:38:33.904Z,5.90
2019-05-30T01:41:02.499Z,3.83
2019-05-30T01:43:30.788Z,6.80
2019-05-30T01:46:00.130Z,5.12
2019-05-30T01:48:28.222Z,3.75
2019-05-30T01:50:56.177Z,5.75
2019-05-30T01:53:24.131Z,5.75
2019-05-30T01:55:52.114Z,10.28
2019-05-30T01:58:20.071Z,5.30
2019-05-30T02:00:48.033Z,4.65
2019-05-30T02:03:16.023Z,7.50
2019-05-30T02:05:44.597Z,3.60
2019-05-30T02:08:12.576Z,6.12
2019-05-30T02:10:41.671Z,6.03
2019-05-30T02:13:10.092Z,5.05
2019-05-30T02:15:38.025Z,4.05
2019-05-30T02:18:06.010Z,7.10
2019-05-30T02:20:33.967Z,3.90
2019-05-30T02:23:04.042Z,3.33
2019-05-30T02:25:32.139Z,4.83
2019-05-30T02:28:00.129Z,4.67
2019-05-30T02:30:28.340Z,3.85
2019-05-30T02:32:56.372Z,5.10
2019-05-30T02:35:24.325Z,3.62
2019-05-30T02:37:52.296Z,3.17
2019-05-30T02:40:20.490Z,3.62
2019-05-30T02:42:48.472Z,5.22
2019-05-30T02:45:16.564Z,2.90
2019-05-30T02:47:44.547Z,4.97
2019-05-30T02:50:14.382Z,3.08
2019-05-30T02:52:42.398Z,2.85
2019-05-30T02:55:13.322Z,3.00
2019-05-30T02:57:41.469Z,3.30
2019-05-30T03:00:15.419Z,6.83
2019-05-30T03:02:39.645Z,4.12
2019-05-30T03:05:09.289Z,4.90
2019-05-30T03:07:38.033Z,5.83
2019-05-30T03:10:07.567Z,4.15
2019-05-30T03:12:36.423Z,5.53
2019-05-30T03:15:06.790Z,5.42
2019-05-30T03:17:35.114Z,3.75
2019-05-30T03:20:11.998Z,2.60
2019-05-30T03:22:33.737Z,3.80
2019-05-30T03:25:02.979Z,4.03
2019-05-30T03:27:31.677Z,4.62
2019-05-30T03:29:59.646Z,4.62
2019-05-30T03:33:02.696Z,3.30
2019-05-30T03:34:58.840Z,2.47
2019-05-30T03:37:29.705Z,4.78
2019-05-30T03:39:56.933Z,6.28
2019-05-30T03:42:24.896Z,6.92
2019-05-30T03:44:52.843Z,2.65
2019-05-30T03:47:22.435Z,2.80
2019-05-30T03:49:51.211Z,3.22
2019-05-30T03:52:20.593Z,3.37
2019-05-30T03:54:49.790Z,3.67
2019-05-30T03:57:25.513Z,3.45
2019-05-30T04:00:01.552Z,3.02
2019-05-30T04:02:58.424Z,7.35
2019-05-30T04:05:32.349Z,5.55
2019-05-30T04:08:03.626Z,5.55
2019-05-30T04:10:38.429Z,2.87
2019-05-30T04:14:00.940Z,6.92
2019-05-30T04:16:28.935Z,3.62
2019-05-30T04:18:56.924Z,4.90
2019-05-30T04:21:24.852Z,2.60
2019-05-30T04:23:53.107Z,1.75
2019-05-30T04:26:21.311Z,3.30
2019-05-30T04:28:49.265Z,1.87
2019-05-30T04:31:19.191Z,2.65
2019-05-30T04:33:47.151Z,3.30
2019-05-30T04:36:16.843Z,4.67
2019-05-30T04:38:45.004Z,3.52
2019-05-30T04:41:13.649Z,3.62
2019-05-30T04:43:42.850Z,3.08
2019-05-30T04:46:12.660Z,1.62
2019-05-30T04:48:41.327Z,4.87
2019-05-30T04:51:10.276Z,4.17
2019-05-30T04:53:38.801Z,3.52
2019-05-30T04:56:06.782Z,2.83
2019-05-30T04:58:34.750Z,4.67
2019-05-30T05:01:02.846Z,3.20
2019-05-30T05:03:45.177Z,3.22
2019-05-30T05:06:00.692Z,1.37
2019-05-30T05:08:28.676Z,4.12
2019-05-30T05:10:56.714Z,2.45
2019-05-30T05:13:24.744Z,2.47
2019-05-30T05:15:52.785Z,2.10
2019-05-30T05:18:21.164Z,2.55
2019-05-30T05:20:49.261Z,2.55
2019-05-30T05:23:17.361Z,3.62
2019-05-30T05:25:59.849Z,1.82
2019-05-30T05:28:15.768Z,3.15
2019-05-30T05:30:43.837Z,2.47
2019-05-30T05:33:11.762Z,1.65
2019-05-30T05:35:39.718Z,5.92
2019-05-30T05:38:07.712Z,2.65
2019-05-30T05:40:35.679Z,2.17
2019-05-30T05:43:03.778Z,2.70
2019-05-30T05:45:31.747Z,3.08
2019-05-30T05:47:59.684Z,4.78
2019-05-30T05:50:28.776Z,1.77
2019-05-30T05:52:56.798Z,2.00
2019-05-30T05:55:25.028Z,4.15
2019-05-30T05:57:53.005Z,1.70
2019-05-30T06:00:21.374Z,1.92
2019-05-30T06:02:49.532Z,7.10
2019-05-30T06:05:18.028Z,3.40
2019-05-30T06:07:46.132Z,2.95
2019-05-30T06:10:14.197Z,2.00
2019-05-30T06:12:42.210Z,4.67
2019-05-30T06:15:10.420Z,9.95
2019-05-30T06:17:39.116Z,4.87
2019-05-30T06:20:07.610Z,7.87
2019-05-30T06:22:35.940Z,4.30
2019-05-30T06:25:05.362Z,9.60
2019-05-30T06:27:33.330Z,17.80
2019-05-30T06:30:01.330Z,14.50
2019-05-30T06:32:29.277Z,7.70
2019-05-30T06:34:57.238Z,8.63
2019-05-30T06:37:25.266Z,6.30
2019-05-30T06:39:53.223Z,6.70
2019-05-30T06:42:21.716Z,6.30
2019-05-30T06:44:49.898Z,13.50
2019-05-30T06:47:17.858Z,5.03
2019-05-30T06:49:45.816Z,7.05
2019-05-30T06:52:14.170Z,7.22
2019-05-30T06:54:42.117Z,4.60
2019-05-30T06:57:10.100Z,6.35
2019-05-30T06:59:38.079Z,10.23
2019-05-30T07:02:06.332Z,9.68
2019-05-30T07:04:50.371Z,14.25
2019-05-30T07:07:06.143Z,10.03
2019-05-30T07:09:34.074Z,14.63
2019-05-30T07:12:02.038Z,7.75
2019-05-30T07:14:31.371Z,8.00
2019-05-30T07:16:59.471Z,11.90
2019-05-30T07:19:27.470Z,12.13
2019-05-30T07:21:55.521Z,9.48
2019-05-30T07:24:23.761Z,9.15
2019-05-30T07:26:54.332Z,18.07
2019-05-30T07:29:24.003Z,9.25
2019-05-30T07:31:51.995Z,12.03
2019-05-30T07:34:19.990Z,8.95
2019-05-30T07:36:48.089Z,12.82
2019-05-30T07:39:16.064Z,14.15
2019-05-30T07:41:44.576Z,21.90
2019-05-30T07:44:12.938Z,17.40
2019-05-30T07:46:40.910Z,21.45
2019-05-30T07:49:08.898Z,12.25
2019-05-30T07:51:36.934Z,15.28
2019-05-30T07:54:05.331Z,10.25
2019-05-30T07:56:33.494Z,14.60
2019-05-30T07:59:01.536Z,12.58
2019-05-30T08:01:30.525Z,14.68
2019-05-30T08:03:58.578Z,10.55
2019-05-30T08:06:27.468Z,10.95
2019-05-30T08:08:55.468Z,12.30
2019-05-30T08:11:23.428Z,13.18
2019-05-30T08:13:51.628Z,10.90
2019-05-30T08:16:20.138Z,8.10
2019-05-30T08:18:48.305Z,9.73
2019-05-30T08:21:16.276Z,9.00
2019-05-30T08:23:44.228Z,9.93
2019-05-30T08:26:12.182Z,9.98
2019-05-30T08:28:42.559Z,7.85
2019-05-30T08:31:10.060Z,9.10
2019-05-30T08:33:38.315Z,11.33
2019-05-30T08:36:06.605Z,7.75
2019-05-30T08:38:35.339Z,6.37
2019-05-30T08:41:03.426Z,7.10
2019-05-30T08:43:31.425Z,5.92
2019-05-30T08:45:59.376Z,9.10
2019-05-30T08:48:27.393Z,8.48
2019-05-30T08:50:55.410Z,5.70
2019-05-30T08:53:23.649Z,9.18
2019-05-30T08:55:51.629Z,5.08
2019-05-30T08:58:19.651Z,10.75
2019-05-30T09:00:47.605Z,7.50
2019-05-30T09:03:15.570Z,6.78
2019-05-30T09:05:59.342Z,4.55
2019-05-30T09:08:13.705Z,8.15
2019-05-30T09:10:42.667Z,5.70
2019-05-30T09:13:10.748Z,5.15
2019-05-30T09:15:39.131Z,7.28
2019-05-30T09:18:07.410Z,8.08
2019-05-30T09:20:35.381Z,7.12
2019-05-30T09:23:03.656Z,4.67
2019-05-30T09:25:31.618Z,6.42
2019-05-30T09:27:59.900Z,6.85
2019-05-30T09:30:27.886Z,4.95
2019-05-30T09:32:55.869Z,6.90
2019-05-30T09:35:23.963Z,3.22
2019-05-30T09:37:51.961Z,6.70
2019-05-30T09:40:21.211Z,3.80
2019-05-30T09:42:50.369Z,6.33
2019-05-30T09:45:20.465Z,4.95
2019-05-30T09:47:49.777Z,4.15
2019-05-30T09:50:20.040Z,5.60
2019-05-30T09:52:49.408Z,5.17
2019-05-30T09:55:17.676Z,5.22
2019-05-30T09:57:45.928Z,4.95
2019-05-30T10:00:15.351Z,5.60
2019-05-30T10:02:44.934Z,4.30
2019-05-30T10:05:14.970Z,5.00
2019-05-30T10:07:45.024Z,3.62
2019-05-30T10:10:13.289Z,4.80
2019-05-30T10:12:41.305Z,4.62
2019-05-30T10:15:10.696Z,4.28
2019-05-30T10:17:38.783Z,5.12
2019-05-30T10:20:07.668Z,2.62
2019-05-30T10:22:35.633Z,3.27
2019-05-30T10:25:05.863Z,4.85
2019-05-30T10:27:34.008Z,5.17
2019-05-30T10:30:02.270Z,4.20
2019-05-30T10:32:30.327Z,3.45
2019-05-30T10:34:58.407Z,3.47
2019-05-30T10:37:26.369Z,3.87
2019-05-30T10:39:58.677Z,3.30
2019-05-30T10:42:24.249Z,3.12
2019-05-30T10:44:52.928Z,3.02
2019-05-30T10:47:22.154Z,4.53
2019-05-30T10:49:51.390Z,3.98
2019-05-30T10:52:19.824Z,3.27
2019-05-30T10:54:49.459Z,2.70
2019-05-30T10:57:18.145Z,5.75
2019-05-30T10:59:47.832Z,4.50
2019-05-30T11:02:16.348Z,3.83
2019-05-30T11:04:44.315Z,4.35
2019-05-30T11:07:29.563Z,3.10
2019-05-30T11:10:07.710Z,3.55
2019-05-30T11:12:35.674Z,3.70
2019-05-30T11:15:05.145Z,4.72
2019-05-30T11:17:33.269Z,4.10
2019-05-30T11:20:01.304Z,2.40
2019-05-30T11:22:29.420Z,2.65
2019-05-30T11:24:59.291Z,2.80
2019-05-30T11:27:28.005Z,4.22
2019-05-30T11:29:56.905Z,2.90
2019-05-30T11:32:25.130Z,2.45
2019-05-30T11:34:53.108Z,3.17
2019-05-30T11:37:21.237Z,3.05
2019-05-30T11:39:49.235Z,2.45
2019-05-30T11:42:17.188Z,4.58
2019-05-30T11:44:45.196Z,2.72
2019-05-30T11:47:13.256Z,3.02
2019-05-30T11:49:41.250Z,2.55
2019-05-30T11:52:09.246Z,3.50
2019-05-30T11:54:37.201Z,4.58
2019-05-30T11:57:06.454Z,2.83
2019-05-30T11:59:35.433Z,3.75
2019-05-30T12:02:03.819Z,2.90
2019-05-30T12:04:31.782Z,2.72
2019-05-30T12:07:04.652Z,2.60
2019-05-30T12:09:34.699Z,2.40
2019-05-30T12:12:02.669Z,2.35
2019-05-30T12:14:30.780Z,4.42
2019-05-30T12:16:59.433Z,1.90
2019-05-30T12:19:27.505Z,2.95
2019-05-30T12:21:55.646Z,1.95
2019-05-30T12:24:26.882Z,5.22
2019-05-30T12:26:56.643Z,2.00
2019-05-30T12:29:24.975Z,2.65
2019-05-30T12:31:56.076Z,3.25
2019-05-30T12:34:22.826Z,3.27
2019-05-30T12:36:52.233Z,3.10
2019-05-30T12:39:20.542Z,2.30
2019-05-30T12:41:49.040Z,2.12
2019-05-30T12:44:17.268Z,3.62
2019-05-30T12:46:45.243Z,2.83
2019-05-30T12:49:15.056Z,1.85
2019-05-30T12:51:43.260Z,2.90
2019-05-30T12:54:12.125Z,2.67
2019-05-30T12:56:40.481Z,2.27
2019-05-30T12:59:08.450Z,1.98
2019-05-30T13:01:36.463Z,2.10
2019-05-30T13:04:07.559Z,2.58
2019-05-30T13:06:35.589Z,3.37
2019-05-30T13:09:07.371Z,2.42
2019-05-30T13:11:35.630Z,4.40
2019-05-30T13:14:03.906Z,1.70
2019-05-30T13:16:31.881Z,2.20
2019-05-30T13:19:00.082Z,1.67
2019-05-30T13:21:29.634Z,1.60
2019-05-30T13:23:57.656Z,2.65
2019-05-30T13:26:25.630Z,1.72
2019-05-30T13:28:53.635Z,1.67
2019-05-30T13:31:21.656Z,1.80
2019-05-30T13:33:49.794Z,2.22
2019-05-30T13:36:21.717Z,2.42
2019-05-30T13:38:49.751Z,2.17
2019-05-30T13:41:18.723Z,1.67
2019-05-30T13:43:48.855Z,1.10
2019-05-30T13:46:17.943Z,1.67
2019-05-30T13:48:47.125Z,2.40
2019-05-30T13:51:15.134Z,2.00
2019-05-30T13:53:43.210Z,2.08
2019-05-30T13:56:12.883Z,1.82
2019-05-30T13:58:45.243Z,2.22
2019-05-30T14:01:14.135Z,2.30
2019-05-30T14:03:43.230Z,2.92
2019-05-30T14:06:11.393Z,1.98
2019-05-30T14:08:41.899Z,0.75
2019-05-30T14:11:11.261Z,2.02
2019-05-30T14:13:39.362Z,1.32
2019-05-30T14:16:08.795Z,1.65
2019-05-30T14:18:37.430Z,1.60
2019-05-30T14:21:07.506Z,2.95
2019-05-30T14:23:35.770Z,1.62
2019-05-30T14:26:05.307Z,1.57
2019-05-30T14:28:35.109Z,1.92
2019-05-30T14:31:03.598Z,1.50
2019-05-30T14:33:33.782Z,1.37
2019-05-30T14:36:06.186Z,1.70
2019-05-30T14:38:32.887Z,1.62
2019-05-30T14:41:00.887Z,1.95
2019-05-30T14:43:28.974Z,3.20
2019-05-30T14:45:57.030Z,1.22
2019-05-30T14:48:29.825Z,2.77
2019-05-30T14:50:57.889Z,1.62
2019-05-30T14:53:26.148Z,1.22
2019-05-30T14:55:54.166Z,1.60
2019-05-30T14:58:22.118Z,1.10
2019-05-30T15:00:50.158Z,1.25
2019-05-30T15:03:18.538Z,1.02
2019-05-30T15:05:46.545Z,0.98
2019-05-30T15:08:14.913Z,1.22
2019-05-30T15:10:43.331Z,1.42
2019-05-30T15:13:15.770Z,1.80
2019-05-30T15:15:44.456Z,2.67
2019-05-30T15:18:13.278Z,1.77
2019-05-30T15:20:42.259Z,0.90
2019-05-30T15:23:11.684Z,1.37
2019-05-30T15:25:42.515Z,1.47
2019-05-30T15:28:12.350Z,1.00
2019-05-30T15:30:40.336Z,1.27
2019-05-30T15:33:12.631Z,1.75
2019-05-30T15:38:08.802Z,1.00
2019-05-30T15:40:37.127Z,1.00
2019-05-30T15:43:11.361Z,0.70
2019-05-30T15:45:41.337Z,1.10
2019-05-30T15:48:12.264Z,1.02
2019-05-30T15:50:41.124Z,1.65
2019-05-30T15:53:09.220Z,1.22
2019-05-30T15:55:37.211Z,0.75
2019-05-30T15:58:07.281Z,1.22
2019-05-30T16:00:37.021Z,1.00
2019-05-30T16:03:05.211Z,1.25
2019-05-30T16:05:33.590Z,1.60
2019-05-30T16:08:02.113Z,0.85
2019-05-30T16:10:30.582Z,0.95
2019-05-30T16:12:58.705Z,1.27
2019-05-30T16:15:26.701Z,0.90
2019-05-30T16:17:55.056Z,1.52
2019-05-30T16:20:23.059Z,1.22
2019-05-30T16:22:51.163Z,1.20
2019-05-30T16:25:19.791Z,0.65
2019-05-30T16:27:47.947Z,1.65
2019-05-30T16:30:19.766Z,1.50
2019-05-30T16:32:47.432Z,1.32
2019-05-30T16:35:18.196Z,0.70
2019-05-30T16:37:46.821Z,0.72
2019-05-30T16:40:16.414Z,1.22
2019-05-30T16:42:45.549Z,1.65
2019-05-30T16:45:20.238Z,0.72
2019-05-30T16:47:44.955Z,1.67
2019-05-30T16:50:14.739Z,1.10
2019-05-30T16:52:43.148Z,0.72
2019-05-30T16:55:11.324Z,1.45
2019-05-30T16:57:39.307Z,1.20
2019-05-30T17:00:08.591Z,1.52
2019-05-30T17:02:37.109Z,0.90
2019-05-30T17:05:05.941Z,1.20
2019-05-30T17:07:33.923Z,1.40
2019-05-30T17:10:02.160Z,0.60
2019-05-30T17:12:32.715Z,1.07
2019-05-30T17:15:00.777Z,1.17
2019-05-30T17:17:29.107Z,1.55
2019-05-30T17:19:57.134Z,1.17
2019-05-30T17:22:36.990Z,1.02
2019-05-30T17:25:07.902Z,0.90
2019-05-30T17:27:36.610Z,0.68
2019-05-30T17:30:12.365Z,1.40
2019-05-30T17:32:40.355Z,0.78
2019-05-30T17:35:10.549Z,0.70
2019-05-30T17:37:40.344Z,1.37
2019-05-30T17:40:11.247Z,0.78
2019-05-30T17:42:39.661Z,0.93
2019-05-30T17:45:09.595Z,0.90
2019-05-30T17:47:40.306Z,1.82
2019-05-30T17:50:11.682Z,1.12
2019-05-30T17:52:42.307Z,0.80
2019-05-30T17:55:13.131Z,0.57
2019-05-30T17:57:41.085Z,1.07
2019-05-30T18:00:09.292Z,0.50
2019-05-30T18:02:41.491Z,0.70
2019-05-30T18:07:38.080Z,2.00
2019-05-30T18:10:08.009Z,0.70
2019-05-30T18:12:37.110Z,0.68
2019-05-30T18:15:06.313Z,0.82
2019-05-30T18:17:34.315Z,0.70
2019-05-30T18:20:04.801Z,1.02
2019-05-30T18:22:35.435Z,0.82
2019-05-30T18:25:03.996Z,0.40
2019-05-30T18:27:32.212Z,0.80
2019-05-30T18:30:00.200Z,0.90
2019-05-30T18:32:28.333Z,0.93
2019-05-30T18:34:57.497Z,0.93
2019-05-30T18:37:26.274Z,0.70
2019-05-30T18:39:54.361Z,0.80
2019-05-30T18:42:23.092Z,0.90
2019-05-30T18:44:51.259Z,1.55
2019-05-30T18:47:19.277Z,0.80
2019-05-30T18:49:47.370Z,0.78
2019-05-30T18:52:17.315Z,0.45
2019-05-30T18:54:45.297Z,1.25
2019-05-30T18:57:13.631Z,0.70
2019-05-30T18:59:41.871Z,0.65
2019-05-30T19:02:09.854Z,1.27
2019-05-30T19:04:37.958Z,1.00
2019-05-30T19:07:07.258Z,0.88
2019-05-30T19:09:35.654Z,1.07
2019-05-30T19:12:03.755Z,1.05
2019-05-30T19:14:34.077Z,0.55
2019-05-30T19:17:01.709Z,1.15
2019-05-30T19:19:29.926Z,0.70
2019-05-30T19:21:58.168Z,0.40
2019-05-30T19:24:26.172Z,0.98
2019-05-30T19:26:54.674Z,0.93
2019-05-30T19:29:22.664Z,0.90
2019-05-30T19:31:50.846Z,0.60
2019-05-30T19:34:18.997Z,0.42
2019-05-30T19:36:47.294Z,0.80
2019-05-30T19:39:15.283Z,0.98
2019-05-30T19:41:55.762Z,0.90
2019-05-30T19:44:13.418Z,1.35
2019-05-30T19:46:41.398Z,0.53
2019-05-30T19:49:09.408Z,0.85
2019-05-30T19:51:37.427Z,0.62
2019-05-30T19:54:05.394Z,0.70
2019-05-30T19:56:36.469Z,1.75
2019-05-30T19:59:03.708Z,1.77
2019-05-30T20:01:31.768Z,0.95
2019-05-30T20:03:59.907Z,0.70
2019-05-30T20:06:27.875Z,0.65
2019-05-30T20:08:56.159Z,0.40
2019-05-30T20:11:24.242Z,0.95
2019-05-30T20:13:52.342Z,0.72
2019-05-30T20:16:20.313Z,0.60
2019-05-30T20:18:48.302Z,0.98
2019-05-30T20:21:16.279Z,1.02
2019-05-30T20:23:52.677Z,0.40
2019-05-30T20:26:15.444Z,1.32
2019-05-30T20:28:43.566Z,0.55
2019-05-30T20:31:11.584Z,0.60
2019-05-30T20:33:40.601Z,0.60
2019-05-30T20:36:09.824Z,0.55
2019-05-30T20:38:38.656Z,0.60
2019-05-30T20:41:06.790Z,1.00
2019-05-30T20:43:35.009Z,0.50
2019-05-30T20:46:03.354Z,1.50
2019-05-30T20:48:31.462Z,0.78
2019-05-30T20:50:59.693Z,0.70
2019-05-30T20:53:27.680Z,0.55
2019-05-30T20:55:55.687Z,0.90
2019-05-30T20:58:23.772Z,0.85
2019-05-30T21:00:51.867Z,0.47
2019-05-30T21:03:22.875Z,0.80
2019-05-30T21:05:50.846Z,0.80
2019-05-30T21:08:18.826Z,0.60
2019-05-30T21:10:48.467Z,0.57
2019-05-30T21:13:17.491Z,1.77
2019-05-30T21:15:46.540Z,0.68
2019-05-30T21:18:17.166Z,1.05
2019-05-30T21:20:46.172Z,0.40
2019-05-30T21:23:14.208Z,0.68
2019-05-30T21:25:43.129Z,0.93
2019-05-30T21:28:11.488Z,0.82
2019-05-30T21:30:39.554Z,0.80
2019-05-30T21:33:08.942Z,0.75
2019-05-30T21:35:37.465Z,0.60
2019-05-30T21:38:05.574Z,0.85
2019-05-30T21:40:34.044Z,0.75
2019-05-30T21:43:06.846Z,1.27
2019-05-30T21:45:31.893Z,0.60
2019-05-30T21:47:59.886Z,0.62
2019-05-30T21:50:28.126Z,0.80
2019-05-30T21:52:56.209Z,0.45
2019-05-30T21:55:24.193Z,0.72
2019-05-30T21:57:52.294Z,0.40
2019-05-30T22:01:06.591Z,0.45
2019-05-30T22:03:35.088Z,0.60
2019-05-30T22:06:03.306Z,0.40
2019-05-30T22:08:31.777Z,0.50
2019-05-30T22:10:59.808Z,0.50
2019-05-30T22:13:27.903Z,0.88
2019-05-30T22:15:55.889Z,1.22
2019-05-30T22:18:24.241Z,0.72
2019-05-30T22:20:52.296Z,0.60
2019-05-30T22:23:20.284Z,1.32
2019-05-30T22:25:48.536Z,1.32
2019-05-30T22:28:16.536Z,0.60
2019-05-30T22:30:44.680Z,0.95
2019-05-30T22:33:12.621Z,0.60
2019-05-30T22:35:40.588Z,0.75
2019-05-30T22:38:08.847Z,0.37
2019-05-30T22:40:37.089Z,1.25
2019-05-30T22:43:05.047Z,1.62
2019-05-30T22:45:33.065Z,0.70
2019-05-30T22:48:01.155Z,0.68
2019-05-30T22:50:29.117Z,0.72
2019-05-30T22:52:57.225Z,0.80
2019-05-30T22:55:25.288Z,0.82
2019-05-30T22:57:53.254Z,1.00
2019-05-30T23:00:21.421Z,0.60
2019-05-30T23:02:49.945Z,1.00
2019-05-30T23:05:17.902Z,0.72
2019-05-30T23:07:47.316Z,1.00
2019-05-30T23:10:16.207Z,0.70
2019-05-30T23:12:44.321Z,0.93
2019-05-30T23:15:13.568Z,0.80
2019-05-30T23:17:41.556Z,0.40
2019-05-30T23:20:09.931Z,4.10
2019-05-30T23:22:37.930Z,1.17
2019-05-30T23:25:06.046Z,1.00
2019-05-30T23:27:34.028Z,1.55
2019-05-30T23:30:02.317Z,0.78
2019-05-30T23:32:31.429Z,0.57
2019-05-30T23:34:59.369Z,1.40
2019-05-30T23:37:27.413Z,1.15
2019-05-30T23:39:55.391Z,0.93
2019-05-30T23:42:23.378Z,0.80
2019-05-30T23:44:51.386Z,1.62
2019-05-30T23:47:19.666Z,0.50
2019-05-30T23:49:47.631Z,0.80
2019-05-30T23:52:16.169Z,1.12
2019-05-30T23:54:44.135Z,0.85
2019-05-30T23:57:12.069Z,1.27
2019-05-30T23:59:40.349Z,3.37
